Time;durP1;ratioP1;P1;durP2;ratioP2;P2;SDS_P1;SDS_P2;PMS_P1;PMS_P2;Temp;Humidity;BMP_temperature;BMP_pressure;BME280_temperature;BME280_humidity;BME280_pressure;Samples;Min_cycle;Max_cycle;Signal;HPM_P1;HPM_P2
2022/12/31 00:02:15;;;;;;;38.80;25.40;;;;;;;3.22;86.90;100475.45;108964;1263;37049;-74
2022/12/31 00:04:51;;;;;;;43.60;26.10;;;;;;;3.20;86.73;100471.52;108940;1262;36977;-73
2022/12/31 00:07:26;;;;;;;43.10;26.30;;;;;;;3.18;86.69;100472.04;108975;1261;36965;-76
2022/12/31 00:10:03;;;;;;;41.40;23.80;;;;;;;3.16;86.44;100468.77;108921;1253;36438;-76
2022/12/31 00:12:38;;;;;;;40.40;23.40;;;;;;;3.14;86.81;100467.23;108973;1253;37418;-77
2022/12/31 00:15:15;;;;;;;44.60;25.50;;;;;;;3.13;86.48;100458.28;108925;1269;36962;-75
2022/12/31 00:17:59;;;;;;;42.90;25.20;;;;;;;3.11;86.87;100456.04;108923;1273;37326;-77
2022/12/31 00:20:38;;;;;;;45.40;26.30;;;;;;;3.10;87.09;100446.91;108972;1273;36975;-74
2022/12/31 00:23:14;;;;;;;39.90;24.30;;;;;;;3.09;86.84;100437.27;108936;1262;36547;-75
2022/12/31 00:25:49;;;;;;;42.00;24.00;;;;;;;3.08;87.16;100433.31;108964;1251;36949;-75
2022/12/31 00:28:24;;;;;;;40.80;25.70;;;;;;;3.07;87.26;100434.19;108937;1264;37000;-77
2022/12/31 00:31:09;;;;;;;44.70;26.30;;;;;;;3.07;87.20;100441.42;108891;1257;37254;-73
2022/12/31 00:33:47;;;;;;;40.20;25.70;;;;;;;3.05;87.09;100443.34;108947;1273;37112;-74
2022/12/31 00:36:29;;;;;;;43.00;26.30;;;;;;;3.04;87.19;100442.81;109000;1253;37071;-75
2022/12/31 00:39:07;;;;;;;44.00;25.50;;;;;;;3.03;87.22;100440.58;108830;1253;175883;-74
2022/12/31 00:41:43;;;;;;;40.00;25.40;;;;;;;3.03;87.47;100435.06;108936;1273;37273;-75
2022/12/31 00:44:22;;;;;;;45.40;27.50;;;;;;;3.03;87.52;100434.71;108947;1254;37360;-75
2022/12/31 00:46:57;;;;;;;44.20;27.40;;;;;;;3.01;87.55;100424.57;108951;1252;37147;-74
2022/12/31 00:49:33;;;;;;;41.80;25.80;;;;;;;3.02;87.45;100429.04;108895;1269;36095;-74
2022/12/31 00:52:08;;;;;;;43.80;25.70;;;;;;;3.01;87.24;100422.49;108852;1256;37046;-74
2022/12/31 00:54:44;;;;;;;41.90;24.30;;;;;;;3.01;87.47;100418.88;108980;1253;36715;-74
2022/12/31 00:57:20;;;;;;;39.50;24.70;;;;;;;3.03;87.61;100418.52;108957;1257;37090;-75
2022/12/31 00:59:55;;;;;;;42.70;25.70;;;;;;;3.06;87.59;100421.79;108900;1273;36010;-75
2022/12/31 01:02:30;;;;;;;44.70;26.50;;;;;;;3.09;87.53;100410.55;108988;1273;37359;-77
2022/12/31 01:05:07;;;;;;;38.70;26.20;;;;;;;3.10;87.67;100401.76;108895;1257;37477;-78
2022/12/31 01:07:45;;;;;;;38.20;23.80;;;;;;;3.11;87.93;100394.87;108870;1251;36981;-76
2022/12/31 01:13:27;;;;;;;38.20;25.80;;;;;;;3.14;87.24;100382.09;108934;1258;36996;-76
2022/12/31 01:16:11;;;;;;;39.80;24.10;;;;;;;3.11;87.30;100379.88;108906;1255;37424;-77
2022/12/31 01:18:50;;;;;;;39.80;24.00;;;;;;;3.10;87.57;100377.98;108951;1273;37113;-77
2022/12/31 01:21:28;;;;;;;;;;;;;;;3.11;87.40;100374.36;108964;1257;38136;-77
2022/12/31 01:24:04;;;;;;;40.50;23.00;;;;;;;3.10;87.71;100375.55;108945;1251;37128;-77
2022/12/31 01:26:44;;;;;;;39.50;24.10;;;;;;;3.13;87.32;100375.54;108922;1273;37007;-73
2022/12/31 01:29:22;;;;;;;38.00;23.80;;;;;;;3.16;87.54;100373.11;108919;1253;37041;-75
2022/12/31 01:31:57;;;;;;;38.80;22.80;;;;;;;3.17;87.44;100371.89;108936;1257;37152;-77
2022/12/31 01:34:34;;;;;;;36.30;21.60;;;;;;;3.17;87.36;100369.98;108955;1254;36953;-76
2022/12/31 01:37:08;;;;;;;37.30;22.00;;;;;;;3.20;87.28;100366.36;108958;1264;37433;-73
2022/12/31 01:39:46;;;;;;;32.90;21.50;;;;;;;3.24;87.08;100362.18;106625;1257;3026548;-75
2022/12/31 01:42:21;;;;;;;35.40;21.30;;;;;;;3.28;87.29;100365.59;108884;1269;36959;-74
2022/12/31 01:44:59;;;;;;;36.60;21.80;;;;;;;3.32;87.43;100358.84;108920;1273;37040;-75
2022/12/31 01:47:40;;;;;;;36.10;21.40;;;;;;;3.34;87.38;100343.82;108914;1251;36947;-75
2022/12/31 01:50:18;;;;;;;34.20;20.10;;;;;;;3.36;86.92;100342.25;108848;1260;37526;-77
2022/12/31 01:52:54;;;;;;;33.30;20.30;;;;;;;3.40;86.77;100339.80;108848;1273;174955;-77
2022/12/31 01:55:30;;;;;;;34.30;20.60;;;;;;;3.42;86.78;100332.02;108969;1273;37232;-72
2022/12/31 01:58:12;;;;;;;32.10;20.90;;;;;;;3.47;86.76;100335.08;108940;1250;36993;-71
2022/12/31 02:00:49;;;;;;;32.80;20.70;;;;;;;3.50;86.68;100324.70;108922;1269;37084;-75
2022/12/31 02:03:24;;;;;;;32.80;19.90;;;;;;;3.52;86.68;100316.91;108951;1273;37245;-73
2022/12/31 02:06:03;;;;;;;29.60;18.80;;;;;;;3.56;86.68;100317.23;108961;1251;37400;-76
2022/12/31 02:08:43;;;;;;;28.80;19.20;;;;;;;3.60;86.62;100313.73;109007;1250;37104;-75
2022/12/31 02:11:36;;;;;;;27.30;18.40;;;;;;;3.66;86.56;100316.79;108918;1273;38236;-74
2022/12/31 02:14:18;;;;;;;31.20;19.60;;;;;;;3.70;86.40;100305.19;108816;1273;188622;-75
2022/12/31 02:17:00;;;;;;;31.20;19.60;;;;;;;3.72;86.12;100313.44;108952;1273;38318;-75
2022/12/31 02:20:29;;;;;;;30.90;18.40;;;;;;;3.74;86.20;100304.43;108941;1253;37207;-74
2022/12/31 02:23:53;;;;;;;28.00;17.70;;;;;;;3.75;86.07;100298.74;108431;1260;36997;-75
2022/12/31 02:27:05;;;;;;;30.70;18.40;;;;;;;3.78;85.94;100278.16;108429;1263;36204;-72
2022/12/31 02:30:23;;;;;;;29.90;19.20;;;;;;;3.83;85.55;100272.23;108899;1253;37092;-73
2022/12/31 02:33:09;;;;;;;32.00;19.10;;;;;;;3.85;85.53;100277.40;108895;1251;37287;-77
2022/12/31 02:35:52;;;;;;;31.70;19.00;;;;;;;3.87;85.53;100272.36;108920;1273;37341;-74
2022/12/31 02:38:28;;;;;;;29.40;18.10;;;;;;;3.88;85.29;100261.30;108981;1253;37085;-75
2022/12/31 02:41:03;;;;;;;26.80;17.60;;;;;;;3.90;85.19;100267.15;108921;1266;37111;-74
2022/12/31 02:43:45;;;;;;;28.00;18.70;;;;;;;3.92;85.27;100262.30;108916;1273;37091;-74
2022/12/31 02:46:27;;;;;;;30.00;18.60;;;;;;;3.94;85.09;100276.95;108960;1273;36733;-75
2022/12/31 02:49:04;;;;;;;31.20;18.80;;;;;;;3.94;85.09;100282.80;108935;1273;36302;-77
2022/12/31 02:51:42;;;;;;;30.00;18.10;;;;;;;3.95;85.07;100289.53;108930;1273;36310;-74
2022/12/31 02:54:34;;;;;;;28.50;17.70;;;;;;;3.96;85.06;100293.30;108909;1273;37688;-73
2022/12/31 02:57:19;;;;;;;27.20;16.80;;;;;;;3.99;85.19;100278.08;109000;1260;37087;-76
2022/12/31 03:02:50;;;;;;;25.00;16.40;;;;;;;4.08;84.96;100266.05;108930;1253;36942;-75
2022/12/31 03:05:27;;;;;;;27.40;16.90;;;;;;;4.12;84.62;100273.08;108924;1273;37126;-75
2022/12/31 03:08:02;;;;;;;25.00;16.10;;;;;;;4.13;84.36;100284.96;108898;1273;37192;-76
2022/12/31 03:10:36;;;;;;;25.10;16.20;;;;;;;4.15;84.58;100290.31;108839;1254;174923;-75
2022/12/31 03:13:10;;;;;;;25.80;15.40;;;;;;;4.18;84.37;100293.89;108946;1261;36973;-75
2022/12/31 03:15:44;;;;;;;24.10;16.40;;;;;;;4.22;84.52;100294.02;108836;1264;174954;-73
2022/12/31 03:22:26;;;;;;;25.70;16.70;;;;;;;4.23;84.17;100292.61;108898;1267;37156;-75
2022/12/31 03:27:10;;;;;;;24.30;14.80;;;;;;;4.29;84.09;100284.59;108899;1265;37393;-75
2022/12/31 03:29:48;;;;;;;24.50;15.00;;;;;;;4.35;84.01;100278.65;108931;1254;36694;-75
2022/12/31 03:32:25;;;;;;;20.60;14.40;;;;;;;4.39;83.89;100281.87;108915;1273;36990;-73
2022/12/31 03:35:03;;;;;;;22.50;14.80;;;;;;;4.43;84.11;100285.78;108917;1251;36944;-75
2022/12/31 03:37:45;;;;;;;21.90;14.50;;;;;;;4.45;84.06;100290.94;108947;1253;36996;-75
2022/12/31 03:40:21;;;;;;;21.30;13.60;;;;;;;4.50;83.79;100296.40;108948;1251;38183;-77
2022/12/31 03:42:56;;;;;;;21.20;13.60;;;;;;;4.54;83.73;100306.17;108872;1257;38430;-75
2022/12/31 03:45:34;;;;;;;20.60;14.20;;;;;;;4.58;83.79;100305.77;108979;1253;37462;-74
2022/12/31 03:48:12;;;;;;;20.10;14.10;;;;;;;4.61;83.79;100303.46;108953;1253;37463;-72
2022/12/31 03:50:47;;;;;;;19.70;12.70;;;;;;;4.64;83.51;100300.34;108926;1273;37860;-75
2022/12/31 03:53:21;;;;;;;19.80;13.70;;;;;;;4.66;83.37;100292.85;108903;1251;38250;-75
2022/12/31 03:55:56;;;;;;;19.60;13.90;;;;;;;4.71;83.38;100293.14;108937;1273;36955;-75
2022/12/31 03:58:30;;;;;;;19.50;13.40;;;;;;;4.75;83.41;100294.11;108899;1254;37107;-75
2022/12/31 04:01:04;;;;;;;20.50;14.00;;;;;;;4.81;83.54;100294.88;108934;1273;37346;-77
2022/12/31 04:03:39;;;;;;;20.00;13.80;;;;;;;4.85;83.48;100297.23;108920;1273;37355;-76
2022/12/31 04:06:14;;;;;;;19.20;12.70;;;;;;;4.91;83.60;100300.77;108905;1273;37113;-76
2022/12/31 04:08:49;;;;;;;16.50;11.40;;;;;;;4.99;83.36;100297.90;108914;1251;36992;-76
2022/12/31 04:11:24;;;;;;;19.50;13.20;;;;;;;5.05;83.40;100302.27;108970;1263;37175;-75
2022/12/31 04:13:58;;;;;;;22.20;13.60;;;;;;;5.09;83.29;100297.03;108921;1263;37051;-76
2022/12/31 04:16:35;;;;;;;19.80;13.00;;;;;;;5.13;83.18;100300.93;108928;1273;36983;-74
2022/12/31 04:19:09;;;;;;;16.90;11.50;;;;;;;5.18;82.95;100297.23;108925;1254;37110;-75
2022/12/31 04:21:49;;;;;;;18.90;13.40;;;;;;;5.23;82.84;100292.30;108948;1257;37115;-74
2022/12/31 04:24:26;;;;;;;18.10;13.00;;;;;;;5.28;83.07;100282.34;108900;1253;36943;-74
2022/12/31 04:27:00;;;;;;;18.30;12.30;;;;;;;5.34;82.97;100277.23;108984;1252;37107;-77
2022/12/31 04:29:38;;;;;;;19.40;12.50;;;;;;;5.38;82.85;100278.20;108906;1251;37175;-77
2022/12/31 04:32:12;;;;;;;17.80;11.80;;;;;;;5.42;82.85;100277.08;108972;1253;37229;-74
2022/12/31 04:34:46;;;;;;;19.90;12.10;;;;;;;5.48;82.71;100273.67;108886;1261;37036;-75
2022/12/31 04:37:20;;;;;;;17.50;12.20;;;;;;;5.54;82.79;100264.75;108929;1251;37303;-74
2022/12/31 04:39:55;;;;;;;18.10;12.50;;;;;;;5.58;82.69;100265.36;108939;1273;37416;-72
2022/12/31 04:42:29;;;;;;;19.30;12.40;;;;;;;5.61;82.35;100265.11;108916;1273;37096;-75
2022/12/31 04:45:05;;;;;;;18.90;12.40;;;;;;;5.64;82.52;100270.08;108911;1254;37121;-75
2022/12/31 04:47:44;;;;;;;18.60;12.60;;;;;;;5.67;82.33;100275.92;108948;1273;36634;-73
2022/12/31 04:50:26;;;;;;;19.20;12.40;;;;;;;5.70;82.38;100275.84;108892;1256;39296;-74
2022/12/31 04:53:07;;;;;;;19.20;13.30;;;;;;;5.73;82.22;100267.14;108951;1251;36350;-76
2022/12/31 04:55:49;;;;;;;18.50;13.20;;;;;;;5.75;82.37;100272.81;108904;1253;37051;-72
2022/12/31 04:58:24;;;;;;;18.50;12.40;;;;;;;5.79;82.41;100275.33;108914;1253;36317;-71
2022/12/31 05:01:01;;;;;;;18.90;12.50;;;;;;;5.83;82.25;100285.11;108915;1254;37153;-73
2022/12/31 05:03:38;;;;;;;19.70;13.40;;;;;;;5.88;82.18;100283.63;108875;1273;37101;-74
2022/12/31 05:06:15;;;;;;;21.20;14.00;;;;;;;5.92;82.14;100288.44;108918;1251;38937;-74
2022/12/31 05:08:50;;;;;;;;;;;;;;;5.95;82.04;100283.67;108939;1253;37344;-74
2022/12/31 05:11:25;;;;;;;19.10;12.60;;;;;;;5.96;82.15;100283.16;108933;1256;36986;-75
2022/12/31 05:14:01;;;;;;;19.80;13.30;;;;;;;6.01;82.06;100279.06;108987;1252;37021;-74
2022/12/31 05:16:36;;;;;;;19.40;13.40;;;;;;;6.07;81.87;100272.02;109006;1253;37298;-74
2022/12/31 05:19:10;;;;;;;19.60;13.50;;;;;;;6.11;81.89;100271.92;108885;1273;36984;-73
2022/12/31 05:22:27;;;;;;;19.00;13.70;;;;;;;6.15;81.93;100274.77;108928;1260;38709;-73
2022/12/31 05:24:43;;;;;;;20.00;13.00;;;;;;;6.18;81.59;100275.73;108923;1273;36998;-74
2022/12/31 05:27:20;;;;;;;20.50;12.90;;;;;;;6.22;81.60;100283.13;108922;1254;36595;-77
2022/12/31 05:29:55;;;;;;;20.70;13.00;;;;;;;6.27;81.65;100282.69;108977;1254;37283;-77
2022/12/31 05:32:30;;;;;;;20.70;14.10;;;;;;;6.31;81.34;100283.29;108908;1253;36989;-72
2022/12/31 05:35:04;;;;;;;19.90;13.30;;;;;;;6.34;81.49;100285.10;108918;1273;37202;-72
2022/12/31 05:37:41;;;;;;;19.00;12.90;;;;;;;6.36;81.18;100278.66;108954;1253;36322;-73
2022/12/31 05:40:17;;;;;;;18.50;13.40;;;;;;;6.39;81.15;100276.85;108912;1256;36319;-73
2022/12/31 05:42:52;;;;;;;18.10;13.10;;;;;;;6.43;81.07;100276.78;108939;1253;36235;-71
2022/12/31 05:45:29;;;;;;;21.00;14.20;;;;;;;6.46;81.04;100279.30;108796;1256;177320;-73
2022/12/31 05:48:04;;;;;;;19.70;13.60;;;;;;;6.50;80.97;100285.98;108898;1272;37125;-73
2022/12/31 05:50:41;;;;;;;18.20;12.90;;;;;;;6.51;81.03;100276.42;108991;1267;37271;-74
2022/12/31 05:53:17;;;;;;;20.90;13.20;;;;;;;6.53;81.03;100271.51;108990;1251;37326;-73
2022/12/31 05:55:58;;;;;;;18.90;13.80;;;;;;;6.57;81.03;100266.21;108992;1250;37116;-75
2022/12/31 05:58:37;;;;;;;20.50;12.90;;;;;;;6.62;80.95;100266.65;109015;1273;37071;-75
2022/12/31 06:01:15;;;;;;;19.80;12.90;;;;;;;6.65;81.15;100264.98;109016;1254;36141;-73
2022/12/31 06:03:56;;;;;;;18.10;12.40;;;;;;;6.68;81.16;100267.34;108962;1253;36282;-74
2022/12/31 06:06:34;;;;;;;17.50;12.30;;;;;;;6.70;81.10;100267.14;108923;1256;37088;-75
2022/12/31 06:09:13;;;;;;;18.30;12.40;;;;;;;6.76;81.20;100266.66;108932;1256;36978;-74
2022/12/31 06:11:47;;;;;;;17.40;12.00;;;;;;;6.79;81.26;100264.48;109015;1253;38787;-75
2022/12/31 06:14:24;;;;;;;19.10;12.50;;;;;;;6.82;81.27;100269.42;108910;1273;37583;-75
2022/12/31 06:17:01;;;;;;;20.40;12.40;;;;;;;6.85;81.41;100269.04;108927;1263;36643;-73
2022/12/31 06:19:35;;;;;;;16.10;11.10;;;;;;;6.87;81.59;100265.85;108922;1273;37068;-75
2022/12/31 06:22:10;;;;;;;16.30;11.60;;;;;;;6.91;81.62;100264.39;108934;1254;37031;-74
2022/12/31 06:24:44;;;;;;;17.60;11.60;;;;;;;6.94;81.81;100264.98;108923;1273;37145;-74
2022/12/31 06:27:18;;;;;;;17.80;11.50;;;;;;;6.97;81.77;100267.69;108390;1254;530451;-75
2022/12/31 06:29:53;;;;;;;18.10;11.50;;;;;;;6.99;81.92;100270.06;108942;1273;37508;-77
2022/12/31 06:32:31;;;;;;;15.80;11.30;;;;;;;7.01;82.07;100272.10;108932;1273;37521;-75
2022/12/31 06:35:13;;;;;;;18.20;11.00;;;;;;;7.05;82.34;100275.83;108957;1253;37050;-72
2022/12/31 06:37:53;;;;;;;15.70;11.10;;;;;;;7.10;82.30;100276.73;108926;1251;37039;-74
2022/12/31 06:40:29;;;;;;;17.30;11.90;;;;;;;7.14;82.50;100281.30;108902;1264;37105;-76
2022/12/31 06:43:04;;;;;;;14.80;11.00;;;;;;;7.19;82.49;100280.84;108939;1253;37033;-75
2022/12/31 06:45:41;;;;;;;16.70;10.80;;;;;;;7.20;82.40;100277.34;108938;1257;38821;-74
2022/12/31 06:48:21;;;;;;;13.80;11.00;;;;;;;7.21;82.32;100268.29;108926;1273;38257;-74
2022/12/31 06:50:57;;;;;;;16.20;10.80;;;;;;;7.25;82.35;100270.63;108919;1251;36978;-74
2022/12/31 06:53:36;;;;;;;14.40;11.30;;;;;;;7.29;82.45;100271.73;108832;1251;174725;-76
2022/12/31 06:56:20;;;;;;;16.80;11.60;;;;;;;7.30;82.45;100275.35;108936;1261;37291;-75
2022/12/31 06:58:58;;;;;;;15.50;11.20;;;;;;;7.32;82.38;100279.46;108933;1251;36993;-75
2022/12/31 07:01:52;;;;;;;15.40;10.00;;;;;;;7.34;82.35;100282.88;108987;1250;37004;-75
2022/12/31 07:05:13;;;;;;;14.00;10.30;;;;;;;7.35;82.39;100283.54;108906;1273;37096;-75
2022/12/31 07:08:04;;;;;;;14.50;10.80;;;;;;;7.39;82.47;100287.95;108935;1265;37113;-74
2022/12/31 07:10:50;;;;;;;14.80;10.70;;;;;;;7.41;82.36;100293.98;108953;1251;37296;-74
2022/12/31 07:13:56;;;;;;;15.40;10.80;;;;;;;7.42;82.43;100297.09;108965;1253;37539;-74
2022/12/31 07:16:43;;;;;;;13.90;9.30;;;;;;;7.43;82.53;100309.70;108959;1251;37033;-72
2022/12/31 07:19:32;;;;;;;16.20;10.50;;;;;;;7.46;82.51;100315.52;108982;1273;37080;-74
2022/12/31 07:22:12;;;;;;;14.40;9.90;;;;;;;7.49;82.46;100318.76;108948;1251;37382;-75
2022/12/31 07:24:52;;;;;;;16.40;10.30;;;;;;;7.53;82.54;100319.19;108929;1263;36957;-74
2022/12/31 07:27:48;;;;;;;13.20;9.70;;;;;;;7.54;82.37;100315.34;108823;1273;174739;-75
2022/12/31 07:30:24;;;;;;;13.20;9.60;;;;;;;7.57;82.37;100319.41;108849;1273;175219;-74
2022/12/31 07:33:38;;;;;;;15.60;9.80;;;;;;;7.60;82.23;100322.81;108912;1253;38108;-76
2022/12/31 07:36:24;;;;;;;14.20;10.20;;;;;;;7.62;82.19;100329.17;108908;1262;172307;-75
2022/12/31 07:39:05;;;;;;;13.40;10.10;;;;;;;7.64;82.16;100340.59;108983;1251;37452;-75
2022/12/31 07:41:46;;;;;;;;;;;;;;;7.66;82.28;100339.31;108992;1253;37317;-76
2022/12/31 07:44:35;;;;;;;11.10;8.90;;;;;;;7.66;82.47;100340.52;108957;1253;38221;-73
2022/12/31 07:47:24;;;;;;;12.10;9.00;;;;;;;7.70;82.31;100340.41;108972;1253;38325;-74
2022/12/31 07:49:59;;;;;;;13.40;9.70;;;;;;;7.76;82.27;100333.65;108881;1251;37068;-71
2022/12/31 07:52:40;;;;;;;12.30;9.00;;;;;;;7.82;82.25;100332.64;108938;1258;36045;-75
2022/12/31 07:55:16;;;;;;;13.70;9.80;;;;;;;7.88;82.23;100328.14;108910;1257;36704;-75
2022/12/31 07:57:57;;;;;;;11.70;9.20;;;;;;;7.92;82.10;100323.16;108910;1273;36112;-75
2022/12/31 08:00:35;;;;;;;13.90;9.30;;;;;;;7.97;81.99;100321.63;108933;1273;37731;-75
2022/12/31 08:03:18;;;;;;;14.10;9.50;;;;;;;8.01;81.82;100323.42;108918;1261;37114;-77
2022/12/31 08:06:05;;;;;;;12.50;9.20;;;;;;;8.08;81.64;100326.19;108783;1264;174696;-75
2022/12/31 08:08:45;;;;;;;14.70;9.10;;;;;;;8.13;81.65;100333.85;108939;1263;36209;-77
2022/12/31 08:11:26;;;;;;;12.30;8.60;;;;;;;8.18;81.58;100336.16;108967;1253;37127;-75
2022/12/31 08:14:00;;;;;;;11.10;8.60;;;;;;;8.23;81.31;100336.85;108972;1273;36104;-75
2022/12/31 08:16:38;;;;;;;13.10;9.40;;;;;;;8.30;81.20;100335.45;108948;1256;36746;-74
2022/12/31 08:19:28;;;;;;;11.80;9.00;;;;;;;8.35;81.26;100336.00;108267;1257;907888;-74
2022/12/31 08:22:28;;;;;;;11.60;8.90;;;;;;;8.38;81.08;100330.39;108962;1257;37242;-74
2022/12/31 08:25:14;;;;;;;12.10;8.50;;;;;;;8.40;80.85;100335.02;108941;1254;37370;-75
2022/12/31 08:28:05;;;;;;;9.80;8.00;;;;;;;8.40;80.59;100333.09;108929;1251;37308;-75
2022/12/31 08:30:57;;;;;;;10.90;8.50;;;;;;;8.45;80.65;100335.05;108925;1255;37086;-73
2022/12/31 08:33:39;;;;;;;11.30;8.60;;;;;;;8.50;80.78;100339.94;108889;1259;37390;-73
2022/12/31 08:36:20;;;;;;;10.30;8.00;;;;;;;8.54;80.58;100349.36;108982;1253;37065;-76
2022/12/31 08:39:00;;;;;;;9.90;7.90;;;;;;;8.57;80.58;100358.16;108967;1266;37200;-77
2022/12/31 08:41:39;;;;;;;9.90;7.50;;;;;;;8.60;80.59;100355.98;108920;1273;37097;-77
2022/12/31 08:44:18;;;;;;;8.10;7.10;;;;;;;8.64;80.32;100358.30;108935;1273;37586;-76
2022/12/31 08:46:57;;;;;;;10.30;7.80;;;;;;;8.66;80.15;100356.98;108970;1273;37312;-77
2022/12/31 08:49:35;;;;;;;9.80;7.80;;;;;;;8.71;80.26;100355.45;108957;1253;37055;-77
2022/12/31 08:52:13;;;;;;;10.90;8.10;;;;;;;8.77;80.02;100364.33;108982;1251;37455;-74
2022/12/31 08:54:49;;;;;;;10.70;7.60;;;;;;;8.80;80.09;100367.17;108958;1263;36526;-74
2022/12/31 08:57:32;;;;;;;8.70;7.30;;;;;;;8.84;80.19;100362.19;108920;1263;36944;-75
2022/12/31 09:00:12;;;;;;;10.80;7.50;;;;;;;8.91;80.19;100358.16;108926;1251;37043;-78
2022/12/31 09:03:32;;;;;;;10.80;7.90;;;;;;;8.98;79.90;100362.44;108970;1264;37026;-76
2022/12/31 09:06:15;;;;;;;9.90;7.40;;;;;;;9.02;79.77;100361.29;108946;1254;36272;-73
2022/12/31 09:08:57;;;;;;;9.90;6.80;;;;;;;9.06;79.55;100359.23;108905;1263;37180;-73
2022/12/31 09:11:39;;;;;;;8.80;7.00;;;;;;;9.10;79.50;100357.00;108939;1254;36961;-76
2022/12/31 09:14:33;;;;;;;9.40;7.00;;;;;;;9.17;79.49;100353.86;108941;1262;36448;-75
2022/12/31 09:17:11;;;;;;;9.80;7.30;;;;;;;9.23;79.32;100345.29;108943;1267;39693;-73
2022/12/31 09:19:45;;;;;;;10.90;7.00;;;;;;;9.27;78.90;100339.95;108948;1253;36981;-74
2022/12/31 09:22:23;;;;;;;9.70;6.70;;;;;;;9.31;78.97;100337.02;108978;1253;36946;-75
2022/12/31 09:24:59;;;;;;;8.70;6.90;;;;;;;9.33;78.87;100334.34;108937;1252;36240;-75
2022/12/31 09:27:38;;;;;;;8.40;6.40;;;;;;;9.40;78.97;100330.98;108901;1260;37251;-76
2022/12/31 09:30:19;;;;;;;8.60;6.50;;;;;;;9.48;78.76;100322.88;108921;1254;36787;-74
2022/12/31 09:33:02;;;;;;;7.90;6.80;;;;;;;9.55;78.79;100314.42;108954;1255;37177;-72
2022/12/31 09:35:41;;;;;;;8.30;6.60;;;;;;;9.63;78.53;100301.95;108957;1253;37398;-77
2022/12/31 09:38:19;;;;;;;8.80;6.60;;;;;;;9.71;78.57;100311.10;108941;1273;37068;-78
2022/12/31 09:41:16;;;;;;;11.40;7.20;;;;;;;9.78;78.20;100309.11;108948;1273;36932;-73
2022/12/31 09:44:28;;;;;;;7.70;6.20;;;;;;;9.87;78.17;100315.42;108909;1257;37071;-78
2022/12/31 09:47:37;;;;;;;7.90;6.40;;;;;;;9.96;78.21;100307.24;108853;1273;37564;-74
2022/12/31 09:50:40;;;;;;;8.70;6.40;;;;;;;10.02;77.60;100312.39;108951;1253;37122;-75
2022/12/31 09:53:55;;;;;;;8.80;6.70;;;;;;;10.04;77.61;100315.48;108938;1253;36961;-73
2022/12/31 09:56:33;;;;;;;8.20;6.10;;;;;;;10.12;77.49;100313.29;108891;1263;36172;-73
2022/12/31 09:59:18;;;;;;;8.60;6.40;;;;;;;10.17;77.28;100308.70;108791;1253;174568;-71
2022/12/31 10:01:55;;;;;;;8.90;5.80;;;;;;;10.21;77.22;100309.10;109005;1273;36979;-76
2022/12/31 10:04:51;;;;;;;6.30;5.70;;;;;;;10.24;77.14;100298.19;108922;1256;36457;-75
2022/12/31 10:07:50;;;;;;;6.80;5.70;;;;;;;10.25;76.88;100295.71;108967;1263;37152;-72
2022/12/31 10:10:29;;;;;;;6.20;5.50;;;;;;;10.29;76.82;100296.96;108924;1273;37052;-74
2022/12/31 10:13:29;;;;;;;9.60;6.30;;;;;;;10.34;76.95;100296.25;108906;1258;37602;-77
2022/12/31 10:16:50;;;;;;;7.40;6.00;;;;;;;10.57;77.14;100292.05;108946;1273;37171;-76
2022/12/31 10:19:46;;;;;;;6.70;5.60;;;;;;;10.77;76.54;100294.04;108945;1263;36956;-75
2022/12/31 10:22:52;;;;;;;6.80;5.40;;;;;;;11.00;76.29;100287.20;109010;1255;37070;-73
2022/12/31 10:25:59;;;;;;;7.30;5.80;;;;;;;11.18;75.97;100276.15;108821;1263;174499;-75
2022/12/31 10:28:42;;;;;;;6.30;5.40;;;;;;;11.30;75.22;100268.29;109021;1257;36516;-75
2022/12/31 10:31:49;;;;;;;6.10;5.50;;;;;;;11.44;74.86;100270.67;109015;1273;36583;-72
2022/12/31 10:34:31;;;;;;;6.00;5.00;;;;;;;11.59;74.52;100268.76;108889;1256;37564;-72
2022/12/31 10:37:17;;;;;;;5.20;4.70;;;;;;;11.65;73.84;100273.92;108967;1256;37283;-76
2022/12/31 10:40:00;;;;;;;6.50;5.00;;;;;;;11.69;73.82;100269.06;108958;1273;38112;-76
2022/12/31 10:43:05;;;;;;;5.60;5.00;;;;;;;11.70;73.49;100259.58;108938;1265;36920;-72
2022/12/31 10:46:15;;;;;;;6.30;5.50;;;;;;;11.68;72.98;100250.73;108923;1273;38308;-75
2022/12/31 10:49:43;;;;;;;6.40;5.70;;;;;;;11.63;73.20;100242.57;108977;1262;38452;-73
2022/12/31 10:52:57;;;;;;;6.70;4.90;;;;;;;11.57;73.22;100245.63;108812;1254;36973;-73
2022/12/31 10:56:16;;;;;;;6.60;5.30;;;;;;;11.54;72.59;100232.32;108906;1251;38893;-75
2022/12/31 10:59:27;;;;;;;5.80;4.60;;;;;;;11.54;73.40;100221.66;108784;1254;37304;-73
2022/12/31 11:02:11;;;;;;;6.40;4.80;;;;;;;11.58;73.31;100225.31;109033;1273;36308;-76
2022/12/31 11:05:28;;;;;;;5.30;4.40;;;;;;;11.59;73.41;100223.89;108890;1265;36999;-73
2022/12/31 11:08:17;;;;;;;5.70;4.80;;;;;;;11.61;73.43;100204.89;108423;1262;37154;-71
2022/12/31 11:11:07;;;;;;;;;;;;;;;11.62;73.03;100201.04;108968;1261;37088;-72
2022/12/31 11:14:39;;;;;;;5.20;4.20;;;;;;;11.59;73.30;100196.64;108989;1251;36990;-74
2022/12/31 11:17:45;;;;;;;5.40;4.10;;;;;;;11.58;73.07;100204.88;108956;1273;38987;-72
2022/12/31 11:20:35;;;;;;;5.70;4.80;;;;;;;11.60;73.35;100197.42;108926;1256;37053;-71
2022/12/31 11:23:20;;;;;;;7.00;4.60;;;;;;;11.66;73.47;100200.35;108978;1254;37718;-73
2022/12/31 11:26:05;;;;;;;7.60;4.50;;;;;;;11.68;73.44;100203.73;108952;1263;37296;-68
2022/12/31 11:29:22;;;;;;;8.60;5.00;;;;;;;11.67;73.38;100219.52;108946;1273;37128;-69
2022/12/31 11:32:10;;;;;;;5.90;4.70;;;;;;;11.62;73.23;100214.83;108825;1257;37317;-69
2022/12/31 11:35:08;;;;;;;6.50;4.50;;;;;;;11.55;73.13;100198.73;108881;1256;36977;-71
2022/12/31 11:37:52;;;;;;;8.50;4.40;;;;;;;11.53;73.35;100202.83;109002;1254;37196;-69
2022/12/31 11:40:42;;;;;;;7.80;4.60;;;;;;;11.58;73.49;100196.69;108921;1251;36949;-72
2022/12/31 11:43:31;;;;;;;6.30;4.90;;;;;;;11.61;73.49;100196.71;108941;1263;36517;-72
2022/12/31 11:46:33;;;;;;;5.70;4.10;;;;;;;11.64;73.64;100190.28;108939;1253;36795;-69
2022/12/31 11:49:38;;;;;;;6.40;5.10;;;;;;;11.70;73.95;100185.98;108945;1264;38282;-70
2022/12/31 11:52:37;;;;;;;5.30;4.10;;;;;;;11.76;73.50;100194.95;108985;1273;37087;-71
2022/12/31 11:55:41;;;;;;;5.30;4.20;;;;;;;11.76;73.49;100194.11;108945;1273;36975;-72
2022/12/31 11:58:20;;;;;;;5.90;4.00;;;;;;;11.78;73.70;100188.77;108266;1273;905332;-72
2022/12/31 12:00:59;;;;;;;4.60;3.90;;;;;;;11.84;73.64;100179.98;109026;1263;36828;-70
2022/12/31 12:03:41;;;;;;;;;;;;;;;11.87;73.40;100178.94;108284;1262;906255;-70
2022/12/31 12:06:23;;;;;;;4.40;3.90;;;;;;;11.86;73.65;100184.05;108947;1264;36248;-70
2022/12/31 12:09:02;;;;;;;5.80;4.10;;;;;;;11.88;73.79;100185.00;108829;1251;174483;-69
2022/12/31 12:11:40;;;;;;;4.80;4.10;;;;;;;11.89;73.53;100178.52;108966;1257;37599;-69
2022/12/31 12:14:34;;;;;;;4.50;3.60;;;;;;;11.90;73.86;100169.90;108895;1263;37415;-72
2022/12/31 12:17:11;;;;;;;4.90;3.70;;;;;;;11.96;73.93;100175.36;108853;1263;174538;-72
2022/12/31 12:19:55;;;;;;;4.30;3.60;;;;;;;12.02;73.96;100179.30;108983;1264;37462;-72
2022/12/31 12:22:36;;;;;;;5.90;4.30;;;;;;;12.05;73.85;100174.06;108867;1254;37166;-71
2022/12/31 12:25:26;;;;;;;4.70;3.80;;;;;;;12.07;73.83;100179.25;108930;1273;38495;-69
2022/12/31 12:28:00;;;;;;;4.10;3.70;;;;;;;12.06;73.81;100186.09;108833;1254;36522;-72
2022/12/31 12:30:56;;;;;;;5.90;3.60;;;;;;;12.04;74.47;100179.73;108923;1273;37100;-71
2022/12/31 12:33:31;;;;;;;4.10;3.50;;;;;;;11.99;75.43;100171.92;108925;1256;37127;-71
2022/12/31 12:36:14;;;;;;;4.20;3.70;;;;;;;11.96;76.36;100163.35;108908;1254;38143;-72
2022/12/31 12:39:07;;;;;;;6.50;3.70;;;;;;;11.92;76.81;100159.83;108949;1273;37067;-73
2022/12/31 12:41:41;;;;;;;5.40;3.70;;;;;;;11.93;77.30;100157.39;108981;1273;37040;-70